Puerto Plata, Dominican Republic

3:50 AM AST on September 03, 2015 (GMT -0400)
SMRD_UNAVCO Puerto Plata | | Change Station
CLOSE
Current Station
Personal Weather Station
Location: Puerto Plata, PUERTO PLATA
Elevation: 36 ft
Nearby Weather Stations

Elev 36 ft 19.76 °N, 70.57 °W | Updated 46 minutes ago

Scattered Clouds
Scattered Clouds
74.7 °F
Feels Like 74 °F
N
0.1
Wind Variable Wind from ENE

Today
High -- | Low -- °F
--% Chance of Precip.
Yesterday
High -- | Low -- °F
Precip. -- in
6:27 AM 6:55 PM
Waning Gibbous, 72% visible
Pressure 29.95 in
Visibility 6.2 miles
Clouds Scattered Clouds 1600 ft
Heat Index 74 °F
Dew Point 70 °F
Humidity 86%
Rainfall 0.27 in
Snow Depth Not available.
UV 0 out of 12
Pollen Not available.
Air Quality Not available.
Flu Activity Not available.
METAR MDST 030700Z 00000KT 9999 SCT016 21/21 Q1014
Pressure 29.95 in
Visibility 6.2 miles
Clouds Scattered Clouds 1600 ft
Heat Index 74 °F
Dew Point 70 °F
Humidity 86%
Rainfall 0.27 in
Snow Depth Not available.
UV 0 out of 12
Pollen Not available.
Air Quality Not available.
Flu Activity Not available.
METAR MDST 030700Z 00000KT 9999 SCT016 21/21 Q1014

10-Day Weather Forecast

×

Almanac

Astronomy

Sep. 03, 2015 Rise Set
Actual Time
Civil Twilight
Nautical Twilight
Astronomical Twilight
Moon
Length of Visible Light
Length of Day
Tomorrow will be .
, % of the Moon is Illuminated

Today's Extremes

Country Highs Country Lows

Community

WunderPhotos

Upload Photos

1,851,919 photos uploaded!

WunderBlogs® & News

Nearby

Air Quality

  Air Quality AQ Index Pollutant
Not available.

Snow Depth

Station Depth Elevation

Earthquake Activity

City Distance Mag. Time & Date
Minimum magnitude displayed is 2.5.

Coastal Water Temperatures

Place Temperature

Stations

Nearby Weather Stations

Station Location Temp. Windchill Dew Point Humidity Wind Precip. Elev Updated Type